createdAt,value
2023-06-04T00:01:02.909Z,1.45
2023-06-04T00:03:32.794Z,1.40
2023-06-04T00:06:02.705Z,1.35
2023-06-04T00:08:32.449Z,1.20
2023-06-04T00:11:02.261Z,1.38
2023-06-04T00:13:32.007Z,1.27
2023-06-04T00:16:04.522Z,1.58
2023-06-04T00:18:34.365Z,1.55
2023-06-04T00:21:04.233Z,1.40
2023-06-04T00:23:34.196Z,1.17
2023-06-04T00:26:04.026Z,1.40
2023-06-04T00:28:33.755Z,1.60
2023-06-04T00:31:08.684Z,1.40
2023-06-04T00:33:38.925Z,1.10
2023-06-04T00:36:09.139Z,1.48
2023-06-04T00:38:38.880Z,1.08
2023-06-04T00:41:08.957Z,1.55
2023-06-04T00:43:39.269Z,1.35
2023-06-04T00:46:18.960Z,1.38
2023-06-04T00:48:48.904Z,1.50
2023-06-04T00:51:18.725Z,1.55
2023-06-04T00:53:48.841Z,0.90
2023-06-04T00:56:18.869Z,1.40
2023-06-04T00:58:49.417Z,1.52
2023-06-04T01:01:28.888Z,1.67
2023-06-04T01:03:59.626Z,1.38
2023-06-04T01:06:33.703Z,1.45
2023-06-04T01:11:38.407Z,1.60
2023-06-04T01:14:10.414Z,1.27
2023-06-04T01:16:45.116Z,1.58
2023-06-04T01:19:27.210Z,1.23
2023-06-04T01:21:58.044Z,1.30
2023-06-04T01:24:29.925Z,1.25
2023-06-04T01:27:00.369Z,1.30
2023-06-04T01:29:31.450Z,1.30
2023-06-04T01:32:04.081Z,1.05
2023-06-04T01:34:33.860Z,1.27
2023-06-04T01:37:03.808Z,1.10
2023-06-04T01:39:33.575Z,1.45
2023-06-04T01:42:03.757Z,1.30
2023-06-04T01:44:33.524Z,1.33
2023-06-04T01:47:05.874Z,1.38
2023-06-04T01:49:35.706Z,1.40
2023-06-04T01:52:05.652Z,1.40
2023-06-04T01:54:35.419Z,1.02
2023-06-04T01:57:05.193Z,1.67
2023-06-04T01:59:35.323Z,1.63
2023-06-04T02:02:08.107Z,1.50
2023-06-04T02:04:38.316Z,1.30
2023-06-04T02:07:09.634Z,1.60
2023-06-04T02:09:39.820Z,1.50
2023-06-04T02:12:10.707Z,1.73
2023-06-04T02:14:46.336Z,1.60
2023-06-04T02:17:18.673Z,1.50
2023-06-04T02:19:51.261Z,1.52
2023-06-04T02:22:21.566Z,1.40
2023-06-04T02:24:51.327Z,1.83
2023-06-04T02:27:21.417Z,1.60
2023-06-04T02:29:51.349Z,1.40
2023-06-04T02:32:23.910Z,1.58
2023-06-04T02:34:53.682Z,1.75
2023-06-04T02:37:23.623Z,1.33
2023-06-04T02:39:53.368Z,1.50
2023-06-04T02:42:23.128Z,1.60
2023-06-04T02:44:52.876Z,1.20
2023-06-04T02:47:25.252Z,1.80
2023-06-04T02:49:55.038Z,1.60
2023-06-04T02:52:26.498Z,1.83
2023-06-04T02:54:56.367Z,1.50
2023-06-04T02:57:27.240Z,1.45
2023-06-04T02:59:56.988Z,1.60
2023-06-04T03:02:29.493Z,1.80
2023-06-04T03:04:59.276Z,1.77
2023-06-04T03:07:29.230Z,1.73
2023-06-04T03:09:59.030Z,1.73
2023-06-04T03:12:28.803Z,1.60
2023-06-04T03:14:58.544Z,1.45
2023-06-04T03:17:32.661Z,1.38
2023-06-04T03:20:02.610Z,1.67
2023-06-04T03:22:35.162Z,1.48
2023-06-04T03:25:05.206Z,2.15
2023-06-04T03:27:35.812Z,1.58
2023-06-04T03:30:07.090Z,1.55
2023-06-04T03:32:52.768Z,1.33
2023-06-04T03:35:22.595Z,1.33
2023-06-04T03:37:52.363Z,1.30
2023-06-04T03:40:23.375Z,1.38
2023-06-04T03:42:53.837Z,1.42
2023-06-04T03:45:25.109Z,1.58
2023-06-04T03:47:57.588Z,1.60
2023-06-04T03:50:27.918Z,1.50
2023-06-04T03:52:58.999Z,1.60
2023-06-04T03:55:29.075Z,1.33
2023-06-04T03:57:58.825Z,1.48
2023-06-04T04:00:28.936Z,1.60
2023-06-04T04:03:04.848Z,1.73
2023-06-04T04:05:35.160Z,1.60
2023-06-04T04:08:04.938Z,1.40
2023-06-04T04:10:37.155Z,1.60
2023-06-04T04:13:08.089Z,1.60
2023-06-04T04:15:40.945Z,1.63
2023-06-04T04:18:13.467Z,1.40
2023-06-04T04:20:43.852Z,1.42
2023-06-04T04:23:14.584Z,1.80
2023-06-04T04:25:48.485Z,1.33
2023-06-04T04:28:18.599Z,1.42
2023-06-04T04:30:50.170Z,1.50
2023-06-04T04:33:25.183Z,1.85
2023-06-04T04:35:55.282Z,1.67
2023-06-04T04:38:26.224Z,1.60
2023-06-04T04:41:05.031Z,1.50
2023-06-04T04:43:35.759Z,1.63
2023-06-04T04:46:28.886Z,1.48
2023-06-04T04:49:01.555Z,1.60
2023-06-04T04:51:31.567Z,1.67
2023-06-04T04:54:02.033Z,1.50
2023-06-04T04:56:37.532Z,1.63
2023-06-04T04:59:08.395Z,1.48
2023-06-04T05:01:38.205Z,1.70
2023-06-04T05:04:11.513Z,1.85
2023-06-04T05:06:43.339Z,1.90
2023-06-04T05:09:13.201Z,1.60
2023-06-04T05:11:42.970Z,1.60
2023-06-04T05:14:12.776Z,1.80
2023-06-04T05:16:45.777Z,1.80
2023-06-04T05:19:20.455Z,1.80
2023-06-04T05:21:50.268Z,1.90
2023-06-04T05:24:21.062Z,2.15
2023-06-04T05:26:52.221Z,1.83
2023-06-04T05:29:24.406Z,1.63
2023-06-04T05:31:54.302Z,1.85
2023-06-04T05:34:29.072Z,1.67
2023-06-04T05:36:59.478Z,1.70
2023-06-04T05:39:30.908Z,1.73
2023-06-04T05:42:07.808Z,1.67
2023-06-04T05:44:38.078Z,2.00
2023-06-04T05:47:09.880Z,1.77
2023-06-04T05:49:42.240Z,1.65
2023-06-04T05:52:12.350Z,1.90
2023-06-04T05:54:42.529Z,1.90
2023-06-04T05:57:12.379Z,1.65
2023-06-04T05:59:42.205Z,1.85
2023-06-04T06:02:16.249Z,1.48
2023-06-04T06:04:49.005Z,1.80
2023-06-04T06:07:20.641Z,1.50
2023-06-04T06:09:50.452Z,1.40
2023-06-04T06:12:21.293Z,1.70
2023-06-04T06:14:51.174Z,1.50
2023-06-04T06:17:20.946Z,1.60
2023-06-04T06:19:53.562Z,1.45
2023-06-04T06:22:23.475Z,2.10
2023-06-04T06:24:53.618Z,1.40
2023-06-04T06:27:23.589Z,1.60
2023-06-04T06:29:53.631Z,1.90
2023-06-04T06:32:23.353Z,2.08
2023-06-04T06:34:55.775Z,1.70
2023-06-04T06:37:25.566Z,1.57
2023-06-04T06:39:55.290Z,2.20
2023-06-04T06:42:25.013Z,1.27
2023-06-04T06:44:55.656Z,1.83
2023-06-04T06:47:25.823Z,1.95
2023-06-04T06:49:58.428Z,1.83
2023-06-04T06:52:28.169Z,2.28
2023-06-04T06:54:57.934Z,2.20
2023-06-04T06:57:27.681Z,1.60
2023-06-04T06:59:57.392Z,1.38
2023-06-04T07:02:27.235Z,1.77
2023-06-04T07:04:59.763Z,1.70
2023-06-04T07:07:29.744Z,1.67
2023-06-04T07:09:59.538Z,1.70
2023-06-04T07:12:29.273Z,1.67
2023-06-04T07:14:59.058Z,1.83
2023-06-04T07:17:29.114Z,1.85
2023-06-04T07:20:01.607Z,1.45
2023-06-04T07:22:31.422Z,1.50
2023-06-04T07:25:01.235Z,1.70
2023-06-04T07:27:31.030Z,1.42
2023-06-04T07:30:00.802Z,1.83
2023-06-04T07:32:30.604Z,1.83
2023-06-04T07:35:02.998Z,1.60
2023-06-04T07:37:32.771Z,1.73
2023-06-04T07:40:02.541Z,1.80
2023-06-04T07:42:32.307Z,1.60
2023-06-04T07:45:03.093Z,1.70
2023-06-04T07:47:32.892Z,1.67
2023-06-04T07:50:05.258Z,1.50
2023-06-04T07:52:35.007Z,1.70
2023-06-04T07:55:04.971Z,1.60
2023-06-04T07:57:34.942Z,1.80
2023-06-04T08:00:06.974Z,1.25
2023-06-04T08:02:41.708Z,1.50
2023-06-04T08:05:14.993Z,1.45
2023-06-04T08:07:44.803Z,2.00
2023-06-04T08:10:14.694Z,1.75
2023-06-04T08:12:44.429Z,1.52
2023-06-04T08:15:14.478Z,1.63
2023-06-04T08:17:44.231Z,1.50
2023-06-04T08:20:16.717Z,1.33
2023-06-04T08:22:46.524Z,1.63
2023-06-04T08:25:16.606Z,1.60
2023-06-04T08:27:47.055Z,1.60
2023-06-04T08:30:17.416Z,1.85
2023-06-04T08:32:47.421Z,2.25
2023-06-04T08:35:20.075Z,1.48
2023-06-04T08:37:49.797Z,1.73
2023-06-04T08:40:19.576Z,1.27
2023-06-04T08:42:49.517Z,1.55
2023-06-04T08:45:19.321Z,1.42
2023-06-04T08:47:52.760Z,1.63
2023-06-04T08:50:26.613Z,1.60
2023-06-04T08:52:58.094Z,1.50
2023-06-04T08:55:27.945Z,1.60
2023-06-04T08:57:57.907Z,1.63
2023-06-04T09:00:27.764Z,1.70
2023-06-04T09:02:57.677Z,3.08
2023-06-04T09:05:30.173Z,2.38
2023-06-04T09:08:04.188Z,1.30
2023-06-04T09:10:36.011Z,1.23
2023-06-04T09:13:07.070Z,1.47
2023-06-04T09:15:36.891Z,1.20
2023-06-04T09:18:07.080Z,1.23
2023-06-04T09:20:39.411Z,1.52
2023-06-04T09:23:18.380Z,1.30
2023-06-04T09:25:48.154Z,1.40
2023-06-04T09:28:17.901Z,1.40
2023-06-04T09:30:55.130Z,1.40
2023-06-04T09:33:26.122Z,1.20
2023-06-04T09:36:01.734Z,1.40
2023-06-04T09:38:38.059Z,2.03
2023-06-04T09:41:15.197Z,1.30
2023-06-04T09:43:45.035Z,1.50
2023-06-04T09:46:15.912Z,1.50
2023-06-04T09:48:46.683Z,1.00
2023-06-04T09:51:21.207Z,1.35
2023-06-04T09:53:57.899Z,1.58
2023-06-04T09:56:27.970Z,1.33
2023-06-04T09:59:02.568Z,1.35
2023-06-04T10:01:33.901Z,1.60
2023-06-04T10:04:07.862Z,1.40
2023-06-04T10:06:40.647Z,1.40
2023-06-04T10:09:12.352Z,1.58
2023-06-04T10:11:45.317Z,1.63
2023-06-04T10:16:49.504Z,1.60
2023-06-04T10:21:54.767Z,1.42
2023-06-04T10:24:27.590Z,1.45
2023-06-04T10:26:59.368Z,1.52
2023-06-04T10:29:29.735Z,1.85
2023-06-04T10:31:59.695Z,1.70
2023-06-04T10:34:30.701Z,1.52
2023-06-04T10:37:03.784Z,1.85
2023-06-04T10:39:34.938Z,1.90
2023-06-04T10:42:05.056Z,1.60
2023-06-04T10:44:35.532Z,1.73
2023-06-04T10:47:05.256Z,1.83
2023-06-04T10:49:35.078Z,1.90
2023-06-04T10:52:13.918Z,1.60
2023-06-04T10:54:46.266Z,1.88
2023-06-04T10:57:16.940Z,1.80
2023-06-04T10:59:57.512Z,1.85
2023-06-04T11:02:27.516Z,1.80
2023-06-04T11:05:07.342Z,1.90
2023-06-04T11:07:51.506Z,2.00
2023-06-04T11:10:21.616Z,2.20
2023-06-04T11:12:54.044Z,1.98
2023-06-04T11:15:23.988Z,2.05
2023-06-04T11:17:55.203Z,2.10
2023-06-04T11:20:26.568Z,2.08
2023-06-04T11:23:00.939Z,2.15
2023-06-04T11:25:31.900Z,1.83
2023-06-04T11:28:02.714Z,1.80
2023-06-04T11:30:32.701Z,1.80
2023-06-04T11:33:06.501Z,1.90
2023-06-04T11:35:44.598Z,1.88
2023-06-04T11:38:17.059Z,1.92
2023-06-04T11:40:46.831Z,2.40
2023-06-04T11:43:17.245Z,1.60
2023-06-04T11:45:47.558Z,1.60
2023-06-04T11:48:17.446Z,1.90
2023-06-04T11:50:47.914Z,1.70
2023-06-04T11:53:20.963Z,1.58
2023-06-04T11:55:50.902Z,1.73
2023-06-04T11:58:21.233Z,2.03
2023-06-04T12:00:51.053Z,2.17
2023-06-04T12:03:21.111Z,1.70
2023-06-04T12:05:50.952Z,1.95
2023-06-04T12:08:23.436Z,2.03
2023-06-04T12:10:53.308Z,2.22
2023-06-04T12:13:23.091Z,1.90
2023-06-04T12:15:55.951Z,2.05
2023-06-04T12:18:28.087Z,2.30
2023-06-04T12:20:57.908Z,1.92
2023-06-04T12:23:33.595Z,2.00
2023-06-04T12:26:04.880Z,2.00
2023-06-04T12:28:36.787Z,1.95
2023-06-04T12:31:06.553Z,2.33
2023-06-04T12:33:36.675Z,2.05
2023-06-04T12:36:06.942Z,1.98
2023-06-04T12:38:39.489Z,2.20
2023-06-04T12:41:09.232Z,1.92
2023-06-04T12:43:39.008Z,2.10
2023-06-04T12:46:09.144Z,2.08
2023-06-04T12:48:39.103Z,1.73
2023-06-04T12:51:09.019Z,2.10
2023-06-04T12:53:42.464Z,2.30
2023-06-04T12:56:12.229Z,2.10
2023-06-04T12:58:42.103Z,1.95
2023-06-04T13:01:12.700Z,2.17
2023-06-04T13:03:44.880Z,2.08
2023-06-04T13:06:14.778Z,2.03
2023-06-04T13:08:47.253Z,2.10
2023-06-04T13:11:17.071Z,2.30
2023-06-04T13:13:46.867Z,1.95
2023-06-04T13:16:16.732Z,1.70
2023-06-04T13:18:46.660Z,2.20
2023-06-04T13:21:16.524Z,1.92
2023-06-04T13:23:51.021Z,1.83
2023-06-04T13:26:21.226Z,2.13
2023-06-04T13:28:50.985Z,2.08
2023-06-04T13:31:20.781Z,2.03
2023-06-04T13:33:50.629Z,2.08
2023-06-04T13:36:20.334Z,1.98
2023-06-04T13:38:53.886Z,1.95
2023-06-04T13:41:24.349Z,2.15
2023-06-04T13:43:54.061Z,2.10
2023-06-04T13:46:23.821Z,2.10
2023-06-04T13:48:53.674Z,2.20
2023-06-04T13:51:23.465Z,1.90
2023-06-04T13:53:56.096Z,1.95
2023-06-04T13:56:26.552Z,2.00
2023-06-04T13:58:56.259Z,2.00
2023-06-04T14:01:26.040Z,2.10
2023-06-04T14:03:55.981Z,2.00
2023-06-04T14:06:26.363Z,2.08
2023-06-04T14:08:58.776Z,1.92
2023-06-04T14:11:28.718Z,2.10
2023-06-04T14:13:58.451Z,1.90
2023-06-04T14:16:28.310Z,1.70
2023-06-04T14:18:58.238Z,2.03
2023-06-04T14:21:28.241Z,1.85
2023-06-04T14:24:00.789Z,2.00
2023-06-04T14:26:30.608Z,2.00
2023-06-04T14:29:00.838Z,2.00
2023-06-04T14:31:30.889Z,1.73
2023-06-04T14:34:00.703Z,2.00
2023-06-04T14:36:30.534Z,1.75
2023-06-04T14:39:03.145Z,1.80
2023-06-04T14:41:32.911Z,1.80
2023-06-04T14:44:02.717Z,1.88
2023-06-04T14:46:32.566Z,1.80
2023-06-04T14:49:02.312Z,1.70
2023-06-04T14:51:32.773Z,1.75
2023-06-04T14:54:05.084Z,1.70
2023-06-04T14:56:34.811Z,1.70
2023-06-04T14:59:10.172Z,2.10
2023-06-04T15:01:41.846Z,2.10
2023-06-04T15:04:11.932Z,1.55
2023-06-04T15:06:41.709Z,2.00
2023-06-04T15:09:14.189Z,1.67
2023-06-04T15:11:43.915Z,1.80
2023-06-04T15:14:13.717Z,1.92
2023-06-04T15:16:43.646Z,2.00
2023-06-04T15:19:13.667Z,1.42
2023-06-04T15:21:44.994Z,1.80
2023-06-04T15:24:17.484Z,1.90
2023-06-04T15:26:47.231Z,1.77
2023-06-04T15:29:16.957Z,2.00
2023-06-04T15:31:47.449Z,2.00
2023-06-04T15:34:17.628Z,1.58
2023-06-04T15:36:47.777Z,1.80
2023-06-04T15:39:20.177Z,1.70
2023-06-04T15:41:49.993Z,1.60
2023-06-04T15:44:19.889Z,2.08
2023-06-04T15:46:49.741Z,1.63
2023-06-04T15:49:19.486Z,1.48
2023-06-04T15:51:50.121Z,1.50
2023-06-04T15:54:33.242Z,1.27
2023-06-04T15:57:12.549Z,1.50
2023-06-04T15:59:42.348Z,1.70
2023-06-04T16:02:12.259Z,1.70
2023-06-04T16:04:42.068Z,1.77
2023-06-04T16:07:11.878Z,1.60
2023-06-04T16:09:44.188Z,1.67
2023-06-04T16:12:14.014Z,2.00
2023-06-04T16:14:44.041Z,1.60
2023-06-04T16:17:13.749Z,1.50
2023-06-04T16:19:43.492Z,1.80
2023-06-04T16:22:14.747Z,1.73
2023-06-04T16:24:48.829Z,1.60
2023-06-04T16:27:18.645Z,1.38
2023-06-04T16:29:48.445Z,1.90
2023-06-04T16:32:18.151Z,1.80
2023-06-04T16:34:47.870Z,1.80
2023-06-04T16:37:17.646Z,1.80
2023-06-04T16:39:50.039Z,1.73
2023-06-04T16:42:19.840Z,1.80
2023-06-04T16:44:50.231Z,1.90
2023-06-04T16:47:20.046Z,2.05
2023-06-04T16:49:49.777Z,1.65
2023-06-04T16:52:19.520Z,2.00
2023-06-04T16:54:51.904Z,1.70
2023-06-04T16:57:22.175Z,1.60
2023-06-04T16:59:52.094Z,1.90
2023-06-04T17:02:21.990Z,2.00
2023-06-04T17:04:52.031Z,2.00
2023-06-04T17:07:21.799Z,1.65
2023-06-04T17:09:54.350Z,2.00
2023-06-04T17:12:24.154Z,1.60
2023-06-04T17:14:53.893Z,1.80
2023-06-04T17:17:23.667Z,1.90
2023-06-04T17:19:53.465Z,1.70
2023-06-04T17:22:23.190Z,2.08
2023-06-04T17:24:56.090Z,2.20
2023-06-04T17:27:25.866Z,1.50
2023-06-04T17:29:55.805Z,1.80
2023-06-04T17:32:26.139Z,1.95
2023-06-04T17:34:56.061Z,1.98
2023-06-04T17:37:25.814Z,1.77
2023-06-04T17:39:58.224Z,1.63
2023-06-04T17:42:27.961Z,1.70
2023-06-04T17:44:57.697Z,2.38
2023-06-04T17:47:27.490Z,2.03
2023-06-04T17:49:57.290Z,1.60
2023-06-04T17:52:27.057Z,2.00
2023-06-04T17:54:59.360Z,1.75
2023-06-04T17:57:29.217Z,1.90
2023-06-04T17:59:59.149Z,2.00
2023-06-04T18:02:29.164Z,2.10
2023-06-04T18:04:58.948Z,1.83
2023-06-04T18:07:28.686Z,1.88
2023-06-04T18:10:01.332Z,2.03
2023-06-04T18:12:32.818Z,1.83
2023-06-04T18:15:04.259Z,2.17
2023-06-04T18:17:34.203Z,1.75
2023-06-04T18:20:04.063Z,2.20
2023-06-04T18:22:33.896Z,2.10
2023-06-04T18:25:08.962Z,2.20
2023-06-04T18:27:39.174Z,2.00
2023-06-04T18:30:10.361Z,2.35
2023-06-04T18:32:40.394Z,2.78
2023-06-04T18:35:10.697Z,3.15
2023-06-04T18:37:40.664Z,2.20
2023-06-04T18:40:14.921Z,2.03
2023-06-04T18:42:44.673Z,2.20
2023-06-04T18:45:14.242Z,2.00
2023-06-04T18:47:44.028Z,2.05
2023-06-04T18:50:14.829Z,2.15
2023-06-04T18:52:44.564Z,1.83
2023-06-04T18:55:18.415Z,2.25
2023-06-04T19:00:20.440Z,2.22
2023-06-04T19:02:50.300Z,2.15
2023-06-04T19:05:20.358Z,2.17
2023-06-04T19:07:52.916Z,2.30
2023-06-04T19:10:25.728Z,2.25
2023-06-04T19:12:55.448Z,2.30
2023-06-04T19:15:25.158Z,2.42
2023-06-04T19:17:55.488Z,2.53
2023-06-04T19:20:25.376Z,2.40
2023-06-04T19:22:55.130Z,2.03
2023-06-04T19:25:27.491Z,2.20
2023-06-04T19:27:57.252Z,2.25
2023-06-04T19:30:27.229Z,2.10
2023-06-04T19:32:57.028Z,2.03
2023-06-04T19:35:27.018Z,2.03
2023-06-04T19:37:57.224Z,2.08
2023-06-04T19:40:29.548Z,2.30
2023-06-04T19:42:59.279Z,1.98
2023-06-04T19:45:29.097Z,2.47
2023-06-04T19:47:59.555Z,3.05
2023-06-04T19:50:29.692Z,2.15
2023-06-04T19:52:59.441Z,2.00
2023-06-04T19:55:32.720Z,1.88
2023-06-04T19:58:02.649Z,2.10
2023-06-04T20:00:32.385Z,2.00
2023-06-04T20:03:02.382Z,2.13
2023-06-04T20:05:32.550Z,2.00
2023-06-04T20:08:02.430Z,2.08
2023-06-04T20:10:35.001Z,1.83
2023-06-04T20:13:04.734Z,1.98
2023-06-04T20:15:34.867Z,2.20
2023-06-04T20:18:04.774Z,1.98
2023-06-04T20:20:34.593Z,2.20
2023-06-04T20:23:04.358Z,2.20
2023-06-04T20:25:36.940Z,1.77
2023-06-04T20:28:06.752Z,2.03
2023-06-04T20:30:36.667Z,2.42
2023-06-04T20:33:06.738Z,2.38
2023-06-04T20:35:36.994Z,2.28
2023-06-04T20:38:07.261Z,2.45
2023-06-04T20:40:39.563Z,2.25
2023-06-04T20:43:09.318Z,2.17
2023-06-04T20:45:39.030Z,1.98
2023-06-04T20:48:08.861Z,2.03
2023-06-04T20:50:38.728Z,2.00
2023-06-04T20:53:08.473Z,2.00
2023-06-04T20:55:40.815Z,2.13
2023-06-04T20:58:10.684Z,1.88
2023-06-04T21:00:40.411Z,2.08
2023-06-04T21:03:10.169Z,1.98
2023-06-04T21:05:39.997Z,1.80
2023-06-04T21:08:09.691Z,1.85
2023-06-04T21:10:42.133Z,2.05
2023-06-04T21:13:11.943Z,2.17
2023-06-04T21:15:41.790Z,2.25
2023-06-04T21:18:11.561Z,1.80
2023-06-04T21:20:41.443Z,1.92
2023-06-04T21:23:11.308Z,2.00
2023-06-04T21:25:43.859Z,1.33
2023-06-04T21:28:13.658Z,2.08
2023-06-04T21:30:43.563Z,1.90
2023-06-04T21:33:13.478Z,1.92
2023-06-04T21:35:43.385Z,1.77
2023-06-04T21:38:13.118Z,1.63
2023-06-04T21:40:45.433Z,2.30
2023-06-04T21:43:15.212Z,1.77
2023-06-04T21:45:45.219Z,1.98
2023-06-04T21:48:15.055Z,2.00
2023-06-04T21:50:44.866Z,2.05
2023-06-04T21:53:14.743Z,1.90
2023-06-04T21:55:47.328Z,1.85
2023-06-04T21:58:18.825Z,1.55
2023-06-04T22:00:48.894Z,1.90
2023-06-04T22:03:19.014Z,1.42
2023-06-04T22:05:48.897Z,1.90
2023-06-04T22:08:18.846Z,1.70
2023-06-04T22:10:51.195Z,1.75
2023-06-04T22:13:20.895Z,1.83
2023-06-04T22:15:50.863Z,1.92
2023-06-04T22:18:20.686Z,1.67
2023-06-04T22:20:50.488Z,1.80
2023-06-04T22:23:20.592Z,2.03
2023-06-04T22:25:53.877Z,1.90
2023-06-04T22:28:23.698Z,1.80
2023-06-04T22:30:53.473Z,1.58
2023-06-04T22:33:23.354Z,1.90
2023-06-04T22:35:53.309Z,1.65
2023-06-04T22:38:23.931Z,2.30
2023-06-04T22:40:56.462Z,2.40
2023-06-04T22:43:27.725Z,2.50
2023-06-04T22:45:57.589Z,1.75
2023-06-04T22:48:27.365Z,1.80
2023-06-04T22:50:58.133Z,1.65
2023-06-04T22:53:29.230Z,1.85
2023-06-04T22:56:07.447Z,1.60
2023-06-04T22:58:37.354Z,1.70
2023-06-04T23:01:07.362Z,1.60
2023-06-04T23:03:37.394Z,2.38
2023-06-04T23:06:07.544Z,2.35
2023-06-04T23:08:37.308Z,1.75
2023-06-04T23:11:10.184Z,1.77
2023-06-04T23:13:40.147Z,2.03
2023-06-04T23:16:10.153Z,2.08
2023-06-04T23:18:39.975Z,1.85
2023-06-04T23:21:10.042Z,1.70
2023-06-04T23:23:40.096Z,1.90
2023-06-04T23:26:12.696Z,1.75
2023-06-04T23:28:42.439Z,1.65
2023-06-04T23:31:12.615Z,1.83
2023-06-04T23:33:42.365Z,2.00
2023-06-04T23:36:12.098Z,1.85
2023-06-04T23:38:41.833Z,2.03
2023-06-04T23:41:14.156Z,1.83
2023-06-04T23:43:43.946Z,2.00
2023-06-04T23:46:13.764Z,2.00
2023-06-04T23:48:43.581Z,1.83
2023-06-04T23:51:14.166Z,1.98
2023-06-04T23:53:44.088Z,1.88
2023-06-04T23:56:16.444Z,1.83
2023-06-04T23:58:46.226Z,2.00
